Corrales, New Mexico
Current Conditions -  °F | °C
As of 2:52 AM on Friday 28 Nov 2014 (Local Time) from KABQ Reporting Station
Few Clouds Few Clouds  
Wind Chill: 37°   Ceiling: Unl
Heat Index: 37°   Visibility: 10mi
Dew Point: 20°   Wind: 0mph
Humidity: 50%   Direction: NA
Pressure: 30.3"   Gusts: NA
Location:  35.22°N, 106.61°W
Report Text: KABQ 280952Z 00000KT 10SM FEW220 FEW300 03/M07 A3030 RMK AO2 SLP233 T00281067
Loading
Personal Weather Stations






























Interactive Weather Map New forecast layout! Learn more

10-Day Weather Forecast

Advertisements
Track Severe Weather on mobile